Terminal Aerodrome Forecast
Issued by NWS

Home | Current Version | Previous Version | Text Only | Print | Product List | Glossary On
Versions: 1 2 3 4 5 6 7 8 9 10 11 12 13 14 15 16
012
FTUS43 KBIS 201534 AAA
TAFMOT
TAF AMD
KMOT 201534Z 2016/2112 24008KT 5SM HZ BKN035 OVC050
      TEMPO 2016/2018 SCT050 BKN070
     FM201800 26012G20KT P6SM BKN070
     FM210100 25009KT P6SM SCT150=

USA.gov is the U.S. government's official web portal to all federal, state and local government web resources and services.